Time;durP1;ratioP1;P1;durP2;ratioP2;P2;SDS_P1;SDS_P2;PMS_P1;PMS_P2;Temp;Humidity;BMP_temperature;BMP_pressure;BME280_temperature;BME280_humidity;BME280_pressure;Samples;Min_cycle;Max_cycle;Signal;HPM_P1;HPM_P2
2023/09/06 00:02:00;;;;;;;6.88;4.93;;;;;;;17.39;54.54;99942.97;5050452;28;20116;-70
2023/09/06 00:04:26;;;;;;;11.98;5.10;;;;;;;17.26;54.49;99917.22;5051890;28;20285;-69
2023/09/06 00:06:52;;;;;;;12.55;5.07;;;;;;;17.28;55.15;99933.31;5049925;28;20033;-70
2023/09/06 00:09:18;;;;;;;11.30;5.07;;;;;;;17.16;54.93;99928.19;5052342;28;20025;-70
2023/09/06 00:11:44;;;;;;;10.77;5.22;;;;;;;17.15;54.54;99933.78;5051484;28;20052;-69
2023/09/06 00:14:11;;;;;;;8.02;4.95;;;;;;;17.08;54.68;99931.69;5052210;28;20033;-69
2023/09/06 00:16:36;;;;;;;8.32;5.22;;;;;;;16.99;55.30;99934.53;5047777;28;20048;-69
2023/09/06 00:19:02;;;;;;;12.05;5.35;;;;;;;16.83;55.61;99919.06;5051527;28;20025;-70
2023/09/06 00:21:28;;;;;;;8.00;5.20;;;;;;;16.84;55.23;99934.28;5052648;28;20348;-69
2023/09/06 00:23:53;;;;;;;7.88;4.55;;;;;;;16.81;55.35;99932.75;5052503;28;20041;-70
2023/09/06 00:26:19;;;;;;;6.85;4.47;;;;;;;16.76;55.10;99925.13;5052086;28;20033;-70
2023/09/06 00:28:45;;;;;;;10.70;5.00;;;;;;;16.72;55.04;99923.75;5051348;28;20033;-69
2023/09/06 00:31:11;;;;;;;7.15;5.00;;;;;;;16.67;54.73;99923.41;5051302;28;20086;-69
2023/09/06 00:33:37;;;;;;;6.43;4.35;;;;;;;16.57;54.67;99906.44;5030889;28;20033;-68
2023/09/06 00:36:04;;;;;;;9.50;4.72;;;;;;;16.61;54.96;99921.31;5054386;28;20071;-69
2023/09/06 00:38:29;;;;;;;6.95;4.57;;;;;;;16.53;54.92;99910.47;5038410;28;20431;-70
2023/09/06 00:40:55;;;;;;;7.05;4.40;;;;;;;16.50;55.49;99917.03;5056372;28;20025;-70
2023/09/06 00:43:20;;;;;;;13.13;4.82;;;;;;;16.45;55.45;99920.25;5055790;28;20439;-69
2023/09/06 00:45:50;;;;;;;8.05;4.72;;;;;;;16.41;55.72;99928.81;5055939;28;20301;-70
2023/09/06 00:48:25;;;;;;;9.27;4.80;;;;;;;16.39;55.89;99923.56;5056310;28;20040;-69
2023/09/06 00:50:54;;;;;;;6.47;4.55;;;;;;;16.30;56.40;99921.84;5056195;28;20024;-70
2023/09/06 00:53:21;;;;;;;6.30;4.20;;;;;;;16.17;56.99;99912.31;5056745;28;20112;-69
2023/09/06 00:55:48;;;;;;;11.68;4.30;;;;;;;16.10;56.91;99908.53;5055271;28;20037;-69
2023/09/06 00:58:17;;;;;;;8.38;4.88;;;;;;;16.00;56.78;99899.69;5054636;28;20037;-69
2023/09/06 01:00:47;;;;;;;7.50;4.78;;;;;;;16.04;57.23;99895.66;5054837;28;20360;-70
2023/09/06 01:03:14;;;;;;;7.75;4.25;;;;;;;15.93;57.39;99896.75;5055967;28;20033;-68
2023/09/06 01:05:53;;;;;;;8.45;5.00;;;;;;;15.97;57.57;99897.31;5054592;28;20044;-70
2023/09/06 01:08:26;;;;;;;7.68;4.72;;;;;;;15.94;57.62;99901.16;5056004;28;20058;-69
2023/09/06 01:10:52;;;;;;;10.85;4.88;;;;;;;15.69;57.99;99871.22;5055109;28;20041;-69
2023/09/06 01:13:19;;;;;;;9.75;4.57;;;;;;;15.68;58.36;99861.44;5055979;28;20112;-69
2023/09/06 01:15:49;;;;;;;9.38;4.70;;;;;;;15.91;58.37;99891.53;5054981;28;20037;-70
2023/09/06 01:18:16;;;;;;;8.35;4.55;;;;;;;15.95;58.25;99883.13;5055652;28;20086;-69
2023/09/06 01:20:49;;;;;;;8.18;4.68;;;;;;;15.97;58.11;99873.84;5055232;28;20099;-70
2023/09/06 01:23:34;;;;;;;7.68;4.20;;;;;;;16.13;57.72;99873.09;5034570;28;20084;-69
2023/09/06 01:25:59;;;;;;;6.85;4.43;;;;;;;16.07;57.51;99862.94;5052915;28;20039;-68
2023/09/06 01:28:27;;;;;;;12.07;4.53;;;;;;;15.98;57.81;99826.09;5056092;28;20359;-69
2023/09/06 01:30:54;;;;;;;10.35;4.28;;;;;;;16.16;57.84;99845.78;5054593;28;20128;-69
2023/09/06 01:33:20;;;;;;;11.43;4.88;;;;;;;16.15;57.88;99840.53;5055501;28;20432;-69
2023/09/06 01:35:45;;;;;;;8.52;4.70;;;;;;;16.13;58.26;99840.69;5053761;28;20028;-69
2023/09/06 01:38:11;;;;;;;8.15;5.20;;;;;;;16.11;58.68;99842.69;5037487;28;20045;-71
2023/09/06 01:40:37;;;;;;;9.73;5.22;;;;;;;16.10;58.85;99835.59;5054658;28;20032;-69
2023/09/06 01:43:03;;;;;;;10.27;5.40;;;;;;;16.13;58.72;99829.06;5054579;28;20415;-70
2023/09/06 01:45:29;;;;;;;10.93;4.75;;;;;;;16.20;58.59;99830.94;5033091;28;20036;-69
2023/09/06 01:47:55;;;;;;;9.57;4.78;;;;;;;16.25;58.43;99832.31;5051105;28;20094;-70
2023/09/06 01:50:21;;;;;;;10.88;5.07;;;;;;;16.34;58.01;99828.63;5055113;28;20024;-70
2023/09/06 01:52:47;;;;;;;8.05;4.35;;;;;;;16.35;57.91;99814.97;5053801;28;20021;-69
2023/09/06 01:55:13;;;;;;;12.25;5.20;;;;;;;16.49;57.55;99827.03;5053790;28;20428;-69
2023/09/06 01:57:38;;;;;;;7.70;4.68;;;;;;;16.61;57.45;99829.44;5053275;28;20033;-69
2023/09/06 02:02:50;;;;;;;7.90;3.90;;;;;;;16.75;57.03;99823.41;5054983;28;20048;-69
2023/09/06 02:05:16;;;;;;;11.95;4.63;;;;;;;16.78;56.61;99817.66;5053150;28;20047;-70
2023/09/06 02:07:42;;;;;;;8.77;4.13;;;;;;;16.86;56.69;99808.72;5053470;28;20379;-71
2023/09/06 02:10:08;;;;;;;7.80;3.80;;;;;;;16.91;56.23;99802.84;5054024;28;20035;-71
2023/09/06 02:12:34;;;;;;;10.05;4.80;;;;;;;16.74;56.37;99766.78;5054015;28;20049;-69
2023/09/06 02:15:00;;;;;;;12.07;4.20;;;;;;;16.93;56.42;99804.34;5052768;28;20455;-70
2023/09/06 02:17:27;;;;;;;10.90;4.60;;;;;;;16.92;56.34;99791.00;5054155;28;20043;-70
2023/09/06 02:19:52;;;;;;;9.23;4.13;;;;;;;16.81;56.14;99765.13;5053720;28;20364;-69
2023/09/06 02:22:18;;;;;;;8.00;3.83;;;;;;;17.05;56.11;99795.97;5054468;28;20029;-70
2023/09/06 02:24:44;;;;;;;9.15;3.90;;;;;;;16.90;55.76;99760.59;5054288;28;20501;-70
2023/09/06 02:27:12;;;;;;;7.65;4.07;;;;;;;17.11;55.40;99791.72;5053681;28;20036;-69
2023/09/06 02:29:39;;;;;;;6.18;4.03;;;;;;;17.15;54.94;99799.34;5052953;28;20049;-70
2023/09/06 02:32:05;;;;;;;5.63;3.88;;;;;;;17.20;55.00;99796.16;5036361;28;20113;-69
2023/09/06 02:34:30;;;;;;;6.75;4.03;;;;;;;16.99;55.17;99761.44;5053187;28;20191;-77
2023/09/06 02:36:56;;;;;;;5.28;3.60;;;;;;;17.16;55.00;99773.16;5037080;28;20250;-69
2023/09/06 02:39:25;;;;;;;6.28;4.10;;;;;;;17.30;54.31;99791.41;5052467;28;20028;-69
2023/09/06 02:41:51;;;;;;;5.93;3.60;;;;;;;17.25;54.35;99791.06;5054314;28;20506;-69
2023/09/06 02:44:16;;;;;;;9.10;3.95;;;;;;;17.29;54.28;99776.19;5053969;28;20063;-70
2023/09/06 02:46:43;;;;;;;5.68;3.90;;;;;;;17.28;54.45;99785.31;5054003;28;20133;-71
2023/09/06 02:49:12;;;;;;;7.60;3.92;;;;;;;17.41;54.28;99786.69;5052925;28;20052;-69
2023/09/06 02:51:39;;;;;;;8.27;3.75;;;;;;;17.38;54.20;99790.56;5053641;28;20441;-70
2023/09/06 02:54:05;;;;;;;5.93;4.00;;;;;;;17.39;54.20;99788.72;5052358;28;20037;-70
2023/09/06 02:56:30;;;;;;;9.10;3.90;;;;;;;17.41;54.18;99783.97;5054147;28;20035;-70
2023/09/06 02:58:56;;;;;;;7.55;3.58;;;;;;;17.38;54.18;99784.31;5052608;28;20498;-70
2023/09/06 03:01:21;;;;;;;6.70;3.97;;;;;;;17.41;54.30;99775.84;5053514;28;20029;-70
2023/09/06 03:03:48;;;;;;;6.40;3.70;;;;;;;17.41;54.06;99773.16;5053608;28;20040;-70
2023/09/06 03:06:18;;;;;;;6.60;4.10;;;;;;;17.32;54.40;99770.44;5053377;28;20506;-70
2023/09/06 03:08:47;;;;;;;4.53;3.55;;;;;;;17.30;54.49;99772.47;5052649;28;20028;-71
2023/09/06 03:11:15;;;;;;;7.72;3.70;;;;;;;17.27;54.34;99761.97;5053737;28;20355;-70
2023/09/06 03:13:42;;;;;;;10.50;4.05;;;;;;;17.25;54.67;99766.72;5052599;28;20037;-70
2023/09/06 03:16:13;;;;;;;6.35;3.75;;;;;;;17.24;54.54;99762.31;5053451;28;20040;-69
2023/09/06 03:18:40;;;;;;;4.82;3.47;;;;;;;17.12;54.31;99742.88;5053018;28;20444;-69
2023/09/06 03:21:06;;;;;;;7.40;3.55;;;;;;;17.27;54.43;99761.16;5053095;28;20416;-69
2023/09/06 03:23:32;;;;;;;5.43;3.35;;;;;;;17.47;54.12;99754.34;5053133;28;20029;-71
2023/09/06 03:25:58;;;;;;;6.70;3.53;;;;;;;18.03;52.44;99750.91;5053022;28;20040;-69
2023/09/06 03:28:25;;;;;;;7.72;3.33;;;;;;;18.83;50.55;99744.56;5051762;28;20704;-70
2023/09/06 03:30:54;;;;;;;9.98;3.60;;;;;;;19.19;49.69;99754.84;5052919;28;20052;-69
2023/09/06 03:33:20;;;;;;;8.15;3.42;;;;;;;19.25;49.06;99751.38;5053274;28;20044;-69
2023/09/06 03:35:46;;;;;;;8.98;3.60;;;;;;;19.47;48.74;99746.09;5053288;28;20078;-69
2023/09/06 03:38:15;;;;;;;5.38;4.10;;;;;;;19.62;47.99;99747.00;5052538;28;20494;-70
2023/09/06 03:40:42;;;;;;;6.15;3.63;;;;;;;19.50;48.32;99732.16;5052058;28;20029;-71
2023/09/06 03:43:29;;;;;;;9.52;3.50;;;;;;;19.33;48.70;99743.19;5052982;28;20056;-69
2023/09/06 03:45:56;;;;;;;10.27;3.80;;;;;;;19.05;49.46;99729.34;5052705;28;20037;-70
2023/09/06 03:48:23;;;;;;;9.18;3.50;;;;;;;18.84;49.81;99724.56;5051611;28;20025;-70
2023/09/06 03:50:53;;;;;;;7.55;3.70;;;;;;;18.69;50.37;99716.34;5052783;28;20040;-70
2023/09/06 03:53:19;;;;;;;8.70;3.80;;;;;;;18.61;50.72;99715.38;5053064;28;20033;-69
2023/09/06 03:55:46;;;;;;;4.18;3.42;;;;;;;18.58;50.89;99723.03;5052322;28;20082;-70
2023/09/06 03:58:12;;;;;;;9.45;3.83;;;;;;;18.50;51.31;99713.09;5051526;28;20086;-69
2023/09/06 04:00:43;;;;;;;8.02;3.65;;;;;;;18.22;51.23;99679.16;5052712;28;20033;-69
2023/09/06 04:03:08;;;;;;;5.57;3.63;;;;;;;18.43;51.35;99712.94;5051520;28;20044;-70
2023/09/06 04:05:34;;;;;;;6.03;3.63;;;;;;;18.41;51.56;99706.00;5052377;28;20032;-69
2023/09/06 04:08:06;;;;;;;5.40;3.55;;;;;;;18.40;51.58;99707.03;5051745;28;20117;-69
2023/09/06 04:10:38;;;;;;;10.40;3.80;;;;;;;18.10;51.75;99653.50;5052081;28;20029;-70
2023/09/06 04:13:08;;;;;;;8.75;3.72;;;;;;;18.27;52.12;99680.50;5052818;28;20036;-70
2023/09/06 04:15:34;;;;;;;11.70;4.00;;;;;;;18.38;51.78;99682.81;5052035;28;20043;-71
2023/09/06 04:18:01;;;;;;;7.65;3.85;;;;;;;19.39;49.58;99700.88;5051111;28;20098;-70
2023/09/06 04:20:31;;;;;;;7.97;3.58;;;;;;;21.80;44.14;99690.94;5052585;28;20120;-69
2023/09/06 04:22:58;;;;;;;10.85;3.70;;;;;;;23.17;40.83;99694.72;5052635;28;20833;-68
2023/09/06 04:25:26;;;;;;;6.13;3.25;;;;;;;22.76;40.64;99652.91;5051866;28;20071;-69
2023/09/06 04:27:55;;;;;;;7.65;3.35;;;;;;;22.67;41.42;99684.19;5052068;28;20024;-69
2023/09/06 04:30:28;;;;;;;6.43;3.35;;;;;;;22.87;41.15;99686.94;5051433;28;20094;-70
2023/09/06 04:32:54;;;;;;;7.50;3.75;;;;;;;22.86;40.81;99693.44;5051344;28;20025;-68
2023/09/06 04:35:24;;;;;;;7.35;4.00;;;;;;;23.03;40.70;99699.34;5052224;28;20119;-69
2023/09/06 04:37:49;;;;;;;7.22;3.53;;;;;;;23.08;40.46;99691.34;5051712;28;20033;-68
2023/09/06 04:40:17;;;;;;;8.55;3.60;;;;;;;22.61;41.29;99685.00;5051219;28;20040;-69
2023/09/06 04:42:44;;;;;;;8.00;3.47;;;;;;;21.91;42.93;99675.91;5051599;28;20039;-68
2023/09/06 04:45:11;;;;;;;10.52;3.58;;;;;;;21.38;44.09;99695.50;5052278;28;20021;-68
2023/09/06 04:47:39;;;;;;;6.68;3.40;;;;;;;21.03;45.12;99700.84;5052141;28;20100;-71
2023/09/06 04:50:06;;;;;;;4.97;3.53;;;;;;;20.77;45.70;99697.66;5052365;28;20077;-69
2023/09/06 04:52:37;;;;;;;6.15;3.30;;;;;;;20.72;46.02;99697.38;5052266;28;20312;-70
2023/09/06 04:55:06;;;;;;;10.52;4.38;;;;;;;20.50;46.30;99699.25;5052349;28;20541;-69
2023/09/06 04:57:32;;;;;;;7.30;4.00;;;;;;;20.30;46.69;99658.25;5051658;28;20043;-69
2023/09/06 04:59:58;;;;;;;8.43;3.90;;;;;;;21.33;44.94;99690.63;5051499;28;20045;-69
2023/09/06 05:02:24;;;;;;;9.70;3.63;;;;;;;22.23;42.80;99678.16;5051394;28;20022;-70
2023/09/06 05:04:50;;;;;;;7.93;4.00;;;;;;;23.18;40.63;99690.13;5051244;28;20470;-71
2023/09/06 05:07:16;;;;;;;9.18;3.90;;;;;;;23.32;40.45;99696.44;5051635;28;20107;-70
2023/09/06 05:09:41;;;;;;;6.97;3.50;;;;;;;24.60;38.29;99693.31;5050987;28;20037;-68
2023/09/06 05:12:07;;;;;;;8.93;3.72;;;;;;;26.71;34.72;99678.97;5052332;28;20155;-69
2023/09/06 05:14:33;;;;;;;8.05;3.53;;;;;;;29.07;30.54;99661.47;5051465;28;20025;-70
2023/09/06 05:16:58;;;;;;;5.40;3.42;;;;;;;31.34;27.11;99667.19;5049859;28;20498;-70
2023/09/06 05:19:27;;;;;;;9.75;3.33;;;;;;;31.27;26.89;99670.16;5033685;28;20078;-69
2023/09/06 05:21:54;;;;;;;7.57;3.03;;;;;;;31.07;27.72;99681.88;5052684;28;20032;-72
2023/09/06 05:24:20;;;;;;;10.93;3.60;;;;;;;32.61;25.36;99667.19;5054457;28;20033;-69
2023/09/06 05:26:45;;;;;;;8.02;3.13;;;;;;;34.48;23.15;99666.81;5055664;28;20425;-70
2023/09/06 05:29:11;;;;;;;7.95;3.00;;;;;;;36.04;20.99;99643.94;5052894;28;20120;-66
2023/09/06 05:31:36;;;;;;;8.65;2.90;;;;;;;37.62;19.70;99657.59;5034483;28;20581;-65
2023/09/06 05:34:02;;;;;;;5.85;3.20;;;;;;;38.41;18.60;99648.38;5047466;28;20044;-64
2023/09/06 05:36:28;;;;;;;6.13;2.80;;;;;;;38.71;18.41;99658.03;5053637;28;20507;-64
2023/09/06 05:38:53;;;;;;;4.50;2.72;;;;;;;39.22;17.43;99638.28;5054581;28;20025;-64
2023/09/06 05:41:19;;;;;;;5.72;2.83;;;;;;;40.03;16.70;99635.44;5053728;28;20060;-63
2023/09/06 05:43:46;;;;;;;9.15;2.80;;;;;;;40.89;16.08;99640.59;5034939;28;20025;-63
2023/09/06 05:46:11;;;;;;;6.13;3.30;;;;;;;40.44;16.46;99645.41;5054090;28;20054;-68
2023/09/06 05:48:37;;;;;;;7.45;3.17;;;;;;;40.18;16.75;99639.78;5055337;28;20590;-64
2023/09/06 05:51:03;;;;;;;7.38;3.20;;;;;;;40.35;16.65;99647.41;5054914;28;20360;-64
2023/09/06 05:53:29;;;;;;;5.85;2.80;;;;;;;40.93;16.10;99632.34;5055306;28;20436;-63
2023/09/06 05:55:57;;;;;;;12.32;3.50;;;;;;;42.12;15.22;99631.66;5054928;28;20124;-64
2023/09/06 05:58:23;;;;;;;8.32;3.05;;;;;;;42.87;14.45;99630.06;5054042;28;20025;-64
2023/09/06 06:00:56;;;;;;;4.60;3.22;;;;;;;43.33;13.93;99634.03;5055032;28;20044;-63
2023/09/06 06:03:23;;;;;;;4.80;2.80;;;;;;;43.54;13.88;99631.91;5037432;28;20028;-65
2023/09/06 06:05:51;;;;;;;8.23;2.78;;;;;;;43.02;14.04;99631.38;5054814;28;20025;-63
2023/09/06 06:08:17;;;;;;;5.43;3.03;;;;;;;40.96;15.69;99629.69;5054943;28;20051;-63
2023/09/06 06:10:42;;;;;;;5.00;2.90;;;;;;;39.30;17.36;99620.69;5054417;28;20063;-67
2023/09/06 06:13:08;;;;;;;9.55;2.90;;;;;;;37.58;19.06;99613.84;5055158;28;20045;-66
2023/09/06 06:15:34;;;;;;;8.80;3.17;;;;;;;35.60;21.13;99623.59;5054177;28;20021;-64
2023/09/06 06:18:00;;;;;;;4.57;2.65;;;;;;;33.70;23.63;99621.88;5054252;28;20084;-63
2023/09/06 06:20:25;;;;;;;4.40;2.33;;;;;;;32.64;25.37;99627.00;5054180;28;20029;-63
2023/09/06 06:22:51;;;;;;;7.65;2.95;;;;;;;32.00;25.81;99627.13;5053914;28;20423;-67
2023/09/06 06:25:16;;;;;;;6.03;3.25;;;;;;;31.54;26.38;99591.75;5053085;28;20408;-63
2023/09/06 06:27:42;;;;;;;7.65;3.30;;;;;;;32.01;26.53;99603.88;5054744;28;20071;-64
2023/09/06 06:30:08;;;;;;;6.63;2.97;;;;;;;32.68;25.46;99617.03;5053808;28;20025;-64
2023/09/06 06:32:36;;;;;;;8.63;2.75;;;;;;;34.13;23.76;99615.91;5053390;28;20387;-63
2023/09/06 06:35:06;;;;;;;8.27;3.08;;;;;;;35.70;21.91;99603.16;5053799;28;20061;-63
2023/09/06 06:37:33;;;;;;;8.20;3.10;;;;;;;37.15;20.34;99614.94;5053993;28;20493;-63
2023/09/06 06:40:01;;;;;;;6.70;2.70;;;;;;;39.02;18.50;99606.88;5053623;28;20061;-64
2023/09/06 06:42:34;;;;;;;6.27;3.50;;;;;;;41.46;16.08;99588.88;5053196;28;20467;-63
2023/09/06 06:45:00;;;;;;;7.70;2.85;;;;;;;43.11;14.97;99602.28;5053632;28;20029;-62
2023/09/06 06:47:26;;;;;;;7.10;3.25;;;;;;;44.14;13.94;99593.94;5053611;28;20048;-64
2023/09/06 06:49:52;;;;;;;14.05;2.97;;;;;;;45.04;12.94;99586.34;5054043;28;20025;-63
2023/09/06 06:52:18;;;;;;;7.57;2.97;;;;;;;45.80;12.29;99605.19;5053841;28;20477;-63
2023/09/06 06:54:45;;;;;;;6.03;2.90;;;;;;;46.37;11.88;99599.94;5052983;28;20028;-63
2023/09/06 06:57:12;;;;;;;5.72;2.85;;;;;;;46.99;11.44;99570.00;5049201;28;20041;-67
2023/09/06 06:59:38;;;;;;;7.40;2.92;;;;;;;48.22;10.96;99582.34;5050768;28;20033;-68
2023/09/06 07:02:03;;;;;;;6.80;2.72;;;;;;;49.31;10.13;99594.84;5051807;28;20036;-67
2023/09/06 07:04:29;;;;;;;5.70;2.90;;;;;;;50.06;9.54;99594.50;5051989;28;20036;-68
2023/09/06 07:06:54;;;;;;;6.15;3.08;;;;;;;50.42;9.25;99571.06;5052346;28;20419;-67
2023/09/06 07:09:20;;;;;;;7.60;2.63;;;;;;;50.17;9.82;99582.38;5051144;28;20320;-68
2023/09/06 07:11:46;;;;;;;8.50;2.85;;;;;;;48.26;10.62;99583.22;5052335;28;20442;-68
2023/09/06 07:14:12;;;;;;;8.63;2.60;;;;;;;44.78;13.31;99588.50;5052926;28;20036;-70
2023/09/06 07:16:39;;;;;;;6.93;3.20;;;;;;;41.35;16.10;99584.00;5051043;28;20033;-68
2023/09/06 07:19:05;;;;;;;5.18;2.80;;;;;;;38.17;18.91;99572.03;5050938;28;20028;-68
2023/09/06 07:21:31;;;;;;;5.80;2.70;;;;;;;35.85;21.64;99572.28;5050724;28;20032;-67
2023/09/06 07:23:56;;;;;;;6.15;3.10;;;;;;;34.19;23.96;99561.97;5052083;28;20136;-67
2023/09/06 07:26:22;;;;;;;9.85;3.20;;;;;;;33.49;24.51;99566.47;5051677;28;20028;-67
2023/09/06 07:28:47;;;;;;;5.07;2.92;;;;;;;33.77;24.61;99550.25;5051228;28;20028;-67
2023/09/06 07:31:14;;;;;;;8.55;3.15;;;;;;;34.96;23.08;99559.66;5052105;28;20025;-69
2023/09/06 07:33:40;;;;;;;6.30;3.53;;;;;;;36.86;21.23;99563.78;5051639;28;20479;-68
2023/09/06 07:36:06;;;;;;;7.32;3.10;;;;;;;38.70;19.51;99569.66;5050872;28;20125;-67
2023/09/06 07:38:32;;;;;;;9.05;3.22;;;;;;;39.19;18.96;99557.72;5051504;28;20028;-69
2023/09/06 07:41:05;;;;;;;6.63;2.83;;;;;;;40.88;17.53;99580.00;5044890;28;20029;-65
2023/09/06 07:43:32;;;;;;;7.03;2.75;;;;;;;41.90;16.50;99566.13;5048495;28;20033;-65
2023/09/06 07:45:59;;;;;;;6.00;2.97;;;;;;;41.89;16.35;99564.50;5051172;28;20336;-65
2023/09/06 07:48:28;;;;;;;8.88;2.97;;;;;;;40.09;18.49;99578.09;5051730;28;20040;-64
2023/09/06 07:50:54;;;;;;;8.80;2.78;;;;;;;37.62;20.38;99551.47;5050945;28;20505;-65
2023/09/06 07:53:20;;;;;;;8.18;2.92;;;;;;;35.63;23.18;99565.34;5051054;28;20032;-64
2023/09/06 07:55:46;;;;;;;9.82;2.85;;;;;;;34.01;25.00;99564.28;5051346;28;20355;-65
2023/09/06 07:58:13;;;;;;;8.63;2.95;;;;;;;32.59;26.40;99563.28;5052306;28;20041;-64
2023/09/06 08:00:40;;;;;;;13.52;2.70;;;;;;;31.18;28.17;99574.97;5050930;28;20033;-65
2023/09/06 08:03:06;;;;;;;8.52;2.40;;;;;;;29.84;30.36;99539.53;5050929;28;20452;-65
2023/09/06 08:05:32;;;;;;;6.25;2.55;;;;;;;28.74;32.47;99568.59;5052565;28;20036;-63
2023/09/06 08:07:58;;;;;;;9.48;3.17;;;;;;;27.83;33.78;99562.84;5052072;28;20135;-65
2023/09/06 08:10:24;;;;;;;7.18;2.72;;;;;;;27.28;35.38;99580.63;5051650;28;20075;-65
2023/09/06 08:12:51;;;;;;;9.93;2.97;;;;;;;26.73;36.24;99588.13;5045581;28;20133;-66
2023/09/06 08:15:17;;;;;;;11.73;2.72;;;;;;;26.37;36.82;99582.56;5051445;28;20041;-69
2023/09/06 08:17:47;;;;;;;11.38;2.90;;;;;;;26.29;37.60;99566.44;5051447;28;20382;-66
2023/09/06 08:20:14;;;;;;;10.55;3.10;;;;;;;26.45;37.13;99573.97;5050139;28;20028;-65
2023/09/06 08:22:41;;;;;;;9.00;2.92;;;;;;;26.72;37.60;99589.19;5051659;28;20039;-66
2023/09/06 08:25:06;;;;;;;5.55;3.00;;;;;;;26.57;37.43;99578.66;5052003;28;20029;-64
2023/09/06 08:27:32;;;;;;;10.48;2.90;;;;;;;26.45;37.03;99582.22;5051048;28;20039;-65
2023/09/06 08:29:58;;;;;;;11.75;2.78;;;;;;;26.23;37.77;99590.16;5051387;28;20114;-67
2023/09/06 08:32:23;;;;;;;10.45;3.13;;;;;;;25.93;38.34;99580.81;5050783;28;20036;-65
2023/09/06 08:34:49;;;;;;;4.35;2.53;;;;;;;25.49;38.64;99572.72;5049992;28;20029;-65
2023/09/06 08:37:14;;;;;;;8.57;3.33;;;;;;;25.43;38.91;99590.03;5050961;28;20336;-63
2023/09/06 08:39:40;;;;;;;9.75;3.00;;;;;;;25.32;39.45;99588.91;5046335;28;20025;-65
2023/09/06 08:42:07;;;;;;;8.63;2.90;;;;;;;25.44;39.29;99591.72;5049208;28;20053;-66
2023/09/06 08:44:33;;;;;;;9.40;3.30;;;;;;;25.76;37.89;99582.50;5048241;28;20037;-67
2023/09/06 08:47:04;;;;;;;9.90;2.80;;;;;;;26.07;37.33;99547.72;5050730;28;20333;-66
2023/09/06 08:49:30;;;;;;;7.32;2.70;;;;;;;26.73;35.82;99591.69;5047393;28;20096;-65
2023/09/06 08:51:58;;;;;;;11.38;3.10;;;;;;;27.18;35.18;99582.06;5050131;28;20522;-67
2023/09/06 08:54:25;;;;;;;6.47;2.70;;;;;;;27.48;34.43;99591.22;5051533;28;20479;-65
2023/09/06 08:56:53;;;;;;;9.88;2.85;;;;;;;27.33;33.77;99583.47;5052492;28;20040;-66
2023/09/06 08:59:19;;;;;;;6.40;2.70;;;;;;;26.93;34.67;99601.53;5053059;28;20091;-67
2023/09/06 09:01:45;;;;;;;11.95;2.70;;;;;;;26.27;35.96;99585.00;5053929;28;20037;-67
2023/09/06 09:04:11;;;;;;;11.30;2.75;;;;;;;25.59;37.19;99588.63;5035703;28;20116;-65
2023/09/06 09:06:43;;;;;;;9.07;2.80;;;;;;;24.43;37.80;99507.75;5053871;28;20515;-65
2023/09/06 09:09:19;;;;;;;9.77;2.70;;;;;;;24.41;38.95;99581.03;5053461;28;20528;-64
2023/09/06 09:11:49;;;;;;;19.52;3.78;;;;;;;24.12;40.46;99599.72;5055036;28;20056;-73
2023/09/06 09:14:20;;;;;;;9.60;3.08;;;;;;;23.94;40.64;99605.88;5037611;28;20033;-73
2023/09/06 09:16:53;;;;;;;11.50;3.13;;;;;;;23.72;41.34;99619.00;5054172;28;20032;-72
2023/09/06 09:19:20;;;;;;;8.32;2.67;;;;;;;23.56;40.76;99604.75;5052234;28;20037;-72
2023/09/06 09:21:46;;;;;;;8.60;2.63;;;;;;;23.59;41.35;99603.50;5053486;28;20041;-69
2023/09/06 09:24:12;;;;;;;9.45;2.78;;;;;;;23.58;40.85;99605.38;5051389;28;20033;-69
2023/09/06 09:26:41;;;;;;;8.77;2.50;;;;;;;23.49;41.31;99621.16;5036163;28;20582;-70
2023/09/06 09:29:12;;;;;;;6.90;2.80;;;;;;;23.45;41.91;99636.31;5036001;28;20125;-70
2023/09/06 09:31:38;;;;;;;7.03;3.08;;;;;;;23.38;41.88;99624.56;5052220;28;20959;-75
2023/09/06 09:34:04;;;;;;;7.05;2.90;;;;;;;23.33;42.28;99622.47;5035503;28;20054;-74
2023/09/06 09:36:34;;;;;;;8.20;2.63;;;;;;;23.22;42.22;99593.06;5054103;28;20359;-70
2023/09/06 09:39:09;;;;;;;9.25;2.53;;;;;;;23.79;41.45;99637.06;5034981;28;20021;-71
2023/09/06 09:41:35;;;;;;;6.25;2.30;;;;;;;23.98;40.22;99626.25;5050909;28;20048;-72
2023/09/06 09:44:14;;;;;;;4.95;1.98;;;;;;;24.33;39.57;99625.03;5036125;28;20060;-72
2023/09/06 09:46:43;;;;;;;10.57;2.58;;;;;;;24.50;40.10;99619.91;5053365;28;20109;-69
2023/09/06 09:49:10;;;;;;;9.18;2.78;;;;;;;24.78;39.34;99616.75;5053586;28;20032;-70
2023/09/06 09:51:40;;;;;;;4.63;2.63;;;;;;;24.98;38.96;99621.25;5048982;28;20474;-72
2023/09/06 09:54:06;;;;;;;4.97;2.55;;;;;;;24.87;38.63;99594.59;5053336;28;20025;-70
2023/09/06 09:56:33;;;;;;;4.00;2.33;;;;;;;24.91;38.55;99612.25;5053788;28;20063;-65
2023/09/06 09:59:03;;;;;;;6.07;2.70;;;;;;;24.83;38.80;99628.94;5052373;28;20159;-71
2023/09/06 10:01:31;;;;;;;6.50;2.42;;;;;;;24.38;39.57;99622.50;5052562;28;20435;-66
2023/09/06 10:03:58;;;;;;;7.03;2.78;;;;;;;23.93;40.56;99632.38;5052872;28;20105;-74
2023/09/06 10:06:27;;;;;;;7.43;2.88;;;;;;;23.60;41.40;99641.53;5035993;28;20037;-70
2023/09/06 10:08:58;;;;;;;7.60;2.70;;;;;;;23.22;41.92;99615.72;5035642;28;20036;-66
2023/09/06 10:11:25;;;;;;;5.45;2.45;;;;;;;22.97;41.88;99637.41;5050445;28;20099;-69
2023/09/06 10:13:52;;;;;;;7.25;2.40;;;;;;;22.70;41.78;99637.38;5053199;28;20033;-70
2023/09/06 10:16:20;;;;;;;8.73;2.30;;;;;;;22.49;42.04;99644.69;5049574;28;20041;-71
2023/09/06 10:18:46;;;;;;;6.45;2.30;;;;;;;22.34;41.99;99644.00;5054059;28;20120;-75
2023/09/06 10:21:13;;;;;;;7.40;2.17;;;;;;;22.23;41.99;99635.38;5055568;28;20125;-71
2023/09/06 10:23:42;;;;;;;4.95;2.10;;;;;;;22.42;41.91;99642.97;5051801;28;20463;-73
2023/09/06 10:26:08;;;;;;;9.00;2.20;;;;;;;22.62;41.20;99640.28;5050981;28;20067;-70
2023/09/06 10:28:34;;;;;;;9.85;2.30;;;;;;;22.80;41.39;99646.00;5051580;28;20065;-69
2023/09/06 10:31:07;;;;;;;3.78;2.08;;;;;;;22.98;40.63;99641.81;5048776;28;20490;-66
2023/09/06 10:33:36;;;;;;;4.45;2.05;;;;;;;23.18;40.42;99651.88;5053376;28;20111;-67
2023/09/06 10:36:16;;;;;;;3.78;2.20;;;;;;;23.24;40.02;99637.38;5052331;28;20024;-67
2023/09/06 10:38:50;;;;;;;7.18;2.15;;;;;;;23.21;40.21;99651.47;5053000;28;20040;-67
2023/09/06 10:41:17;;;;;;;5.82;2.33;;;;;;;22.99;40.57;99646.22;5035939;28;20033;-69
2023/09/06 10:43:58;;;;;;;4.97;1.90;;;;;;;22.97;41.04;99645.59;5053125;28;20534;-71
2023/09/06 10:46:31;;;;;;;5.95;2.25;;;;;;;22.83;40.52;99654.81;5050323;28;20437;-64
2023/09/06 10:49:23;;;;;;;6.28;2.25;;;;;;;22.79;40.35;99649.75;5052671;28;20366;-64
2023/09/06 10:52:08;;;;;;;2.80;1.95;;;;;;;22.75;40.94;99647.66;5051728;28;20341;-63
2023/09/06 10:54:44;;;;;;;6.53;1.98;;;;;;;22.75;41.26;99643.06;5051740;28;20036;-63
2023/09/06 10:57:14;;;;;;;7.38;2.05;;;;;;;22.80;41.28;99646.00;5052505;28;20048;-65
2023/09/06 10:59:55;;;;;;;3.17;2.13;;;;;;;23.00;40.86;99634.25;5051334;28;20212;-65
2023/09/06 11:02:21;;;;;;;3.60;1.70;;;;;;;22.96;41.06;99634.84;5040291;28;20435;-67
2023/09/06 11:04:47;;;;;;;5.75;2.30;;;;;;;23.05;41.04;99639.06;5051667;28;20043;-64
2023/09/06 11:07:13;;;;;;;4.53;1.90;;;;;;;23.09;40.96;99629.41;5051587;28;20037;-66
2023/09/06 11:09:43;;;;;;;4.47;2.03;;;;;;;23.45;39.80;99632.75;5050643;28;20448;-65
2023/09/06 11:12:13;;;;;;;4.82;2.33;;;;;;;23.85;39.11;99629.06;5050046;28;20422;-66
2023/09/06 11:14:41;;;;;;;5.95;2.03;;;;;;;24.19;37.74;99633.34;5050749;28;20083;-65
2023/09/06 11:17:06;;;;;;;4.93;2.00;;;;;;;24.32;36.71;99613.28;5050924;28;20086;-68
2023/09/06 11:19:35;;;;;;;5.47;2.38;;;;;;;24.49;36.37;99624.53;5051153;28;20040;-66
2023/09/06 11:22:09;;;;;;;7.30;2.10;;;;;;;24.67;35.83;99628.41;5052468;28;20040;-65
2023/09/06 11:24:35;;;;;;;3.90;1.90;;;;;;;24.64;35.67;99628.88;5052069;28;20375;-65
2023/09/06 11:27:24;;;;;;;4.18;2.30;;;;;;;24.90;35.46;99625.09;5052649;28;20037;-65
2023/09/06 11:29:57;;;;;;;4.75;2.10;;;;;;;24.79;35.23;99634.03;5052591;28;20024;-67
2023/09/06 11:32:23;;;;;;;5.43;2.10;;;;;;;24.46;35.60;99618.66;5052375;28;20033;-66
2023/09/06 11:34:49;;;;;;;4.22;1.90;;;;;;;24.32;36.28;99624.22;5053098;28;20071;-64
2023/09/06 11:37:16;;;;;;;4.45;2.00;;;;;;;24.19;36.31;99641.56;5052215;28;20115;-65